Time;durP1;ratioP1;P1;durP2;ratioP2;P2;SDS_P1;SDS_P2;PMS_P1;PMS_P2;Temp;Humidity;BMP_temperature;BMP_pressure;BME280_temperature;BME280_humidity;BME280_pressure;Samples;Min_cycle;Max_cycle;Signal;HPM_P1;HPM_P2
2023/05/05 00:00:02;;;;;;;1.87;0.70;;;17.80;99.90;;;;;;1889380;75;21568;-80
2023/05/05 00:02:54;;;;;;;1.87;0.90;;;17.60;99.90;;;;;;1911765;75;21445;-80
2023/05/05 00:05:46;;;;;;;1.50;0.90;;;17.50;99.90;;;;;;1894254;75;21149;-80
2023/05/05 00:11:16;;;;;;;1.55;0.98;;;17.20;99.90;;;;;;1939112;72;22240;-80
2023/05/05 00:16:46;;;;;;;1.75;0.82;;;17.10;99.90;;;;;;1954555;72;22185;-80
2023/05/05 00:19:37;;;;;;;1.85;0.90;;;17.10;99.90;;;;;;1921243;73;21122;-80
2023/05/05 00:22:29;;;;;;;1.05;0.70;;;17.10;99.90;;;;;;1927116;73;21151;-80
2023/05/05 00:25:20;;;;;;;1.85;0.80;;;17.10;99.90;;;;;;1923221;73;21227;-80
2023/05/05 00:28:12;;;;;;;3.08;0.80;;;17.00;99.90;;;;;;1935112;73;21095;-80
2023/05/05 00:33:43;;;;;;;1.90;0.72;;;16.70;99.90;;;;;;1944065;72;22145;-80
2023/05/05 00:39:15;;;;;;;1.37;0.90;;;16.80;99.90;;;;;;1939560;72;22170;-80
2023/05/05 00:42:06;;;;;;;3.62;0.78;;;16.70;99.90;;;;;;1895526;75;21549;-80
2023/05/05 00:47:37;;;;;;;1.55;0.70;;;16.70;99.90;;;;;;1952022;72;22233;-80
2023/05/05 00:53:08;;;;;;;1.10;0.70;;;16.70;99.90;;;;;;1945465;72;22129;-80
2023/05/05 00:58:41;;;;;;;4.00;1.30;;;16.60;99.90;;;;;;1953849;72;22349;-80
2023/05/05 01:01:32;;;;;;;4.78;1.40;;;16.50;99.90;;;;;;1920557;73;21246;-80
2023/05/05 01:04:24;;;;;;;1.40;0.88;;;16.40;99.90;;;;;;1917528;73;21206;-80
2023/05/05 01:07:19;;;;;;;1.50;0.90;;;16.40;99.90;;;;;;1934863;73;21086;-80
2023/05/05 01:10:14;;;;;;;2.15;1.00;;;16.40;99.90;;;;;;1929435;73;21164;-79
2023/05/05 01:15:55;;;;;;;2.65;1.22;;;16.30;99.90;;;;;;1946947;72;22208;-80
2023/05/05 01:18:52;;;;;;;2.25;0.80;;;16.30;99.90;;;;;;1936124;73;21159;-80
2023/05/05 01:21:46;;;;;;;2.15;0.90;;;16.30;99.90;;;;;;1920473;73;21205;-79
2023/05/05 01:25:42;;;;;;;2.62;0.90;;;16.20;99.90;;;;;;1918968;75;21229;-80
2023/05/05 01:31:23;;;;;;;1.87;0.90;;;16.20;99.90;;;;;;1935244;72;22260;-79
2023/05/05 01:36:59;;;;;;;1.47;1.00;;;16.10;99.90;;;;;;1930608;72;22197;-80
2023/05/05 01:39:54;;;;;;;1.92;1.30;;;16.10;99.90;;;;;;1894617;75;21094;-79
2023/05/05 01:42:47;;;;;;;2.58;1.05;;;16.10;99.90;;;;;;1887429;75;21144;-80
2023/05/05 01:51:01;;;;;;;2.08;0.90;;;16.20;99.90;;;;;;1937358;72;22472;-80
2023/05/05 01:53:56;;;;;;;2.70;0.85;;;16.20;99.90;;;;;;1899683;75;21062;-80
2023/05/05 01:59:30;;;;;;;2.40;0.85;;;15.90;99.90;;;;;;1939876;72;22219;-80
2023/05/05 02:05:05;;;;;;;1.25;1.00;;;16.00;99.90;;;;;;1949163;72;22193;-80
2023/05/05 02:10:36;;;;;;;2.98;0.95;;;16.00;99.90;;;;;;1932514;72;22295;-80
2023/05/05 02:16:09;;;;;;;1.10;0.80;;;16.00;99.90;;;;;;1959132;72;22358;-80
2023/05/05 02:21:42;;;;;;;2.40;1.30;;;15.90;99.90;;;;;;1948666;72;22189;-80
2023/05/05 02:27:16;;;;;;;2.05;0.98;;;15.80;99.90;;;;;;1958724;72;22297;-80
2023/05/05 02:30:11;;;;;;;2.10;1.17;;;15.70;99.90;;;;;;1934546;73;21063;-81
2023/05/05 02:33:06;;;;;;;3.25;1.00;;;15.60;99.90;;;;;;1939095;73;21051;-80
2023/05/05 02:36:00;;;;;;;2.87;1.60;;;15.50;99.90;;;;;;1917093;75;21121;-80
2023/05/05 02:41:35;;;;;;;1.72;1.00;;;15.40;99.90;;;;;;1929291;72;22150;-79
2023/05/05 02:44:29;;;;;;;1.80;1.10;;;15.40;99.90;;;;;;1890421;75;21112;-80
2023/05/05 02:47:22;;;;;;;1.82;0.93;;;15.40;99.90;;;;;;1897278;75;21075;-80
2023/05/05 02:52:53;;;;;;;4.22;1.45;;;15.50;99.90;;;;;;1940995;72;22657;-80
2023/05/05 02:55:50;;;;;;;2.08;0.90;;;15.50;99.90;;;;;;1899446;75;21089;-80
2023/05/05 03:01:31;;;;;;;2.37;1.02;;;15.40;99.90;;;;;;1973431;71;22256;-80
2023/05/05 03:04:27;;;;;;;1.67;1.15;;;15.40;99.90;;;;;;1934017;73;21908;-80
2023/05/05 03:10:07;;;;;;;4.35;1.30;;;15.30;99.90;;;;;;1967187;72;22246;-80
2023/05/05 03:13:02;;;;;;;3.67;1.17;;;15.20;99.90;;;;;;1917296;75;21099;-80
2023/05/05 03:18:36;;;;;;;1.67;1.22;;;15.20;99.90;;;;;;1938228;72;22272;-80
2023/05/05 03:21:28;;;;;;;2.87;1.35;;;15.20;99.90;;;;;;1897843;75;21642;-80
2023/05/05 03:26:58;;;;;;;3.17;1.20;;;15.20;99.90;;;;;;1933703;72;22253;-80
2023/05/05 03:29:52;;;;;;;3.22;1.27;;;15.20;99.90;;;;;;1902410;75;21165;-80
2023/05/05 03:32:44;;;;;;;4.12;1.50;;;15.20;99.90;;;;;;1905731;75;21098;-81
2023/05/05 03:38:15;;;;;;;2.92;1.55;;;15.20;99.90;;;;;;1944474;72;22626;-79
2023/05/05 03:41:06;;;;;;;3.33;1.95;;;15.10;99.90;;;;;;1898703;75;21231;-80
2023/05/05 03:46:37;;;;;;;3.75;2.00;;;15.10;99.90;;;;;;1950460;72;22209;-79
2023/05/05 03:49:30;;;;;;;3.25;1.60;;;15.10;99.90;;;;;;1889739;75;21621;-79
2023/05/05 03:52:22;;;;;;;4.15;2.02;;;15.00;99.90;;;;;;1905964;75;21133;-79
2023/05/05 03:57:54;;;;;;;3.50;1.52;;;15.10;99.90;;;;;;1945803;72;22138;-80
2023/05/05 04:03:28;;;;;;;2.20;1.50;;;15.00;99.90;;;;;;1953124;72;22272;-80
2023/05/05 04:08:58;;;;;;;3.47;1.85;;;14.90;99.90;;;;;;1927888;72;22228;-80
2023/05/05 04:11:50;;;;;;;5.67;1.90;;;14.90;99.90;;;;;;1876469;75;21601;-80
2023/05/05 04:14:41;;;;;;;2.72;2.17;;;14.90;99.90;;;;;;1873332;75;21086;-79
2023/05/05 04:17:33;;;;;;;3.08;2.00;;;14.90;99.90;;;;;;1872669;75;21129;-80
2023/05/05 04:20:25;;;;;;;2.92;2.02;;;14.90;99.90;;;;;;1899635;75;21204;-79
2023/05/05 04:25:56;;;;;;;2.75;1.87;;;14.80;99.90;;;;;;1923750;72;22696;-80
2023/05/05 04:31:27;;;;;;;3.58;2.00;;;14.80;99.90;;;;;;1930735;72;22169;-80
2023/05/05 04:36:58;;;;;;;5.08;2.33;;;14.80;99.90;;;;;;1944339;72;22252;-80
2023/05/05 04:39:50;;;;;;;4.50;2.10;;;14.80;99.90;;;;;;1891626;75;21095;-79
2023/05/05 04:42:42;;;;;;;4.92;2.10;;;14.80;99.90;;;;;;1893258;75;21098;-80
2023/05/05 04:45:33;;;;;;;4.00;2.05;;;14.80;99.90;;;;;;1892293;75;21063;-79
2023/05/05 04:51:07;;;;;;;2.70;1.70;;;14.90;99.90;;;;;;1938834;72;22149;-81
2023/05/05 04:53:59;;;;;;;3.42;1.62;;;14.90;99.90;;;;;;1883227;75;21128;-81
2023/05/05 04:59:30;;;;;;;3.77;1.60;;;15.00;99.90;;;;;;1934159;72;22159;-80
2023/05/05 05:02:22;;;;;;;3.08;1.80;;;15.10;99.90;;;;;;1873755;75;21220;-80
2023/05/05 05:07:57;;;;;;;3.45;1.80;;;15.10;99.90;;;;;;1941901;72;22581;-80
2023/05/05 05:10:49;;;;;;;2.87;1.52;;;15.10;99.90;;;;;;1891905;75;21221;-79
2023/05/05 05:13:41;;;;;;;2.87;1.90;;;15.20;99.90;;;;;;1873950;75;21146;-81
2023/05/05 05:16:32;;;;;;;2.02;1.85;;;15.30;99.90;;;;;;1873068;75;21165;-80
2023/05/05 05:22:04;;;;;;;4.30;2.12;;;15.40;99.90;;;;;;1926385;72;22123;-82
2023/05/05 05:27:40;;;;;;;4.58;2.15;;;15.60;99.90;;;;;;1953131;72;22894;-81
2023/05/05 05:33:17;;;;;;;2.75;1.70;;;15.60;99.90;;;;;;1928767;72;22150;-90
2023/05/05 05:36:10;;;;;;;2.77;1.57;;;15.70;99.90;;;;;;1908187;74;21089;-88
2023/05/05 05:41:40;;;;;;;3.62;1.90;;;15.90;99.90;;;;;;2058007;69;22302;-89
2023/05/05 05:44:32;;;;;;;3.60;1.50;;;15.90;99.90;;;;;;2002742;70;21179;-88
2023/05/05 05:47:24;;;;;;;4.60;1.50;;;15.80;99.90;;;;;;1964393;71;21056;-89
2023/05/05 05:52:59;;;;;;;2.85;1.40;;;16.10;99.90;;;;;;1931331;72;22845;-89
2023/05/05 05:55:51;;;;;;;3.05;1.40;;;16.10;99.90;;;;;;1888235;75;21126;-88
2023/05/05 06:01:22;;;;;;;3.17;1.65;;;16.30;99.90;;;;;;1943827;72;22294;-89
2023/05/05 06:04:15;;;;;;;1.67;1.50;;;16.40;99.90;;;;;;1880738;75;21189;-88
2023/05/05 06:07:07;;;;;;;3.92;1.40;;;16.40;99.90;;;;;;1900009;75;21357;-89
2023/05/05 06:12:37;;;;;;;3.95;1.60;;;16.50;99.90;;;;;;1950947;72;22297;-88
2023/05/05 06:18:22;;;;;;;7.58;2.02;;;16.70;99.90;;;;;;1950088;72;22204;-88
2023/05/05 06:21:14;;;;;;;4.17;1.95;;;16.60;99.90;;;;;;1905594;74;21064;-88
2023/05/05 06:24:08;;;;;;;2.83;1.70;;;16.60;99.90;;;;;;1930035;72;21186;-90
2023/05/05 06:29:45;;;;;;;3.62;1.75;;;16.50;99.90;;;;;;1952263;72;22173;-89
2023/05/05 06:35:18;;;;;;;8.45;2.60;;;16.70;99.90;;;;;;1930240;72;22221;-90
2023/05/05 06:38:11;;;;;;;9.70;2.52;;;16.80;99.90;;;;;;1883031;75;21180;-88
2023/05/05 06:41:07;;;;;;;3.90;1.60;;;16.90;99.90;;;;;;1909673;75;21096;-88
2023/05/05 06:46:50;;;;;;;2.87;1.70;;;17.10;99.90;;;;;;1959798;72;22231;-88
2023/05/05 06:49:42;;;;;;;4.45;1.82;;;17.20;99.90;;;;;;1906771;74;21090;-89
2023/05/05 06:52:33;;;;;;;6.70;1.75;;;17.30;99.90;;;;;;1903201;74;21096;-89
2023/05/05 06:58:34;;;;;;;3.50;1.80;;;17.50;99.90;;;;;;2016055;70;22224;-88
2023/05/05 07:01:25;;;;;;;6.42;1.95;;;17.30;99.90;;;;;;2041088;69;21106;-90
2023/05/05 07:07:08;;;;;;;9.40;2.50;;;17.40;99.90;;;;;;1948477;72;22213;-88
2023/05/05 07:10:00;;;;;;;9.30;2.50;;;17.50;99.90;;;;;;1917927;73;21094;-88
2023/05/05 07:12:53;;;;;;;5.08;2.15;;;17.50;99.90;;;;;;1918193;73;21090;-89
2023/05/05 07:18:31;;;;;;;5.42;2.00;;;17.60;99.90;;;;;;1947819;72;22290;-88
2023/05/05 07:24:09;;;;;;;5.67;2.60;;;17.60;99.90;;;;;;1961129;72;22581;-88
2023/05/05 07:27:00;;;;;;;6.00;2.17;;;17.70;99.90;;;;;;1914445;73;21114;-88
2023/05/05 07:29:52;;;;;;;4.35;2.17;;;17.80;99.90;;;;;;1928859;73;21267;-88
2023/05/05 07:32:43;;;;;;;7.90;1.87;;;17.90;99.90;;;;;;1910434;74;21535;-88
2023/05/05 07:38:44;;;;;;;2.92;1.70;;;18.00;99.90;;;;;;1985120;71;22665;-89
2023/05/05 07:41:35;;;;;;;4.22;2.00;;;18.00;99.90;;;;;;1929721;73;21094;-90
2023/05/05 07:44:27;;;;;;;3.72;1.72;;;18.10;99.90;;;;;;2008563;70;21061;-90
2023/05/05 07:49:59;;;;;;;5.60;1.80;;;18.20;99.90;;;;;;1942318;72;22240;-90
2023/05/05 07:52:51;;;;;;;5.17;1.45;;;18.30;99.90;;;;;;1881815;75;21541;-89
2023/05/05 07:55:45;;;;;;;2.30;1.60;;;18.40;99.90;;;;;;1882575;75;21095;-89
2023/05/05 07:58:37;;;;;;;4.22;1.65;;;18.50;99.90;;;;;;1896958;75;21099;-88
2023/05/05 08:04:25;;;;;;;3.67;1.60;;;18.80;99.90;;;;;;1961073;72;22266;-88
2023/05/05 08:07:19;;;;;;;2.75;1.70;;;18.90;99.90;;;;;;1924861;73;21086;-88
2023/05/05 08:10:12;;;;;;;5.65;1.50;;;19.10;99.90;;;;;;1916846;75;21167;-87
2023/05/05 08:13:03;;;;;;;3.37;1.90;;;19.40;99.90;;;;;;1935378;73;21107;-88
2023/05/05 08:18:36;;;;;;;3.77;1.50;;;20.00;99.90;;;;;;1939777;72;22264;-87
2023/05/05 08:24:12;;;;;;;4.08;1.50;;;20.10;99.90;;;;;;1941687;72;22196;-87
2023/05/05 08:27:05;;;;;;;5.00;1.72;;;20.20;99.90;;;;;;1898166;74;21181;-86
2023/05/05 08:32:41;;;;;;;3.75;1.52;;;20.40;99.90;;;;;;1919137;72;28514;-87
2023/05/05 08:35:33;;;;;;;3.17;1.40;;;20.60;99.90;;;;;;1897491;75;21130;-88
2023/05/05 08:38:24;;;;;;;3.00;1.50;;;20.60;99.90;;;;;;1880115;75;21532;-87
2023/05/05 08:41:18;;;;;;;4.12;1.65;;;20.40;99.90;;;;;;1894776;73;21502;-88
2023/05/05 08:44:10;;;;;;;3.40;1.27;;;20.50;99.90;;;;;;1875519;75;21091;-88
2023/05/05 08:47:02;;;;;;;2.42;1.87;;;20.60;99.90;;;;;;1889469;75;21099;-87
2023/05/05 08:49:55;;;;;;;2.37;1.42;;;20.60;99.90;;;;;;1890958;75;21515;-88
2023/05/05 08:52:49;;;;;;;2.37;1.40;;;20.70;99.90;;;;;;1886227;75;21098;-87
2023/05/05 08:58:26;;;;;;;3.95;1.55;;;20.70;99.90;;;;;;1910604;72;28111;-88
2023/05/05 09:01:20;;;;;;;3.37;1.60;;;21.00;99.90;;;;;;1890220;75;21064;-89
2023/05/05 09:04:11;;;;;;;2.55;1.40;;;20.90;99.90;;;;;;1897413;75;21814;-87
2023/05/05 09:07:03;;;;;;;2.92;1.32;;;20.80;99.90;;;;;;1891623;75;21177;-87
2023/05/05 09:09:55;;;;;;;2.30;1.45;;;20.80;99.90;;;;;;1895664;74;21072;-88
2023/05/05 09:12:48;;;;;;;3.42;1.25;;;20.70;99.90;;;;;;1894577;74;21159;-87
2023/05/05 09:15:40;;;;;;;4.22;1.52;;;20.80;99.90;;;;;;1887063;75;21052;-87
2023/05/05 09:21:25;;;;;;;4.03;1.45;;;20.90;99.90;;;;;;1941514;72;22153;-87
2023/05/05 09:24:17;;;;;;;4.70;1.37;;;21.00;99.90;;;;;;1903715;75;21106;-88
2023/05/05 09:27:19;;;;;;;2.17;1.50;;;21.10;99.90;;;;;;1897590;74;21202;-87
2023/05/05 09:30:14;;;;;;;1.70;1.37;;;21.10;99.90;;;;;;1895575;75;21106;-87
2023/05/05 09:33:07;;;;;;;2.05;1.70;;;21.10;99.90;;;;;;1873064;75;21105;-88
2023/05/05 09:35:59;;;;;;;4.47;1.42;;;21.20;99.90;;;;;;1892170;75;21073;-87
2023/05/05 09:41:39;;;;;;;5.37;1.90;;;21.40;99.90;;;;;;1930532;72;22607;-89
2023/05/05 09:47:20;;;;;;;2.50;1.17;;;21.50;99.90;;;;;;1932479;72;22115;-88
2023/05/05 09:50:14;;;;;;;5.45;1.32;;;21.60;99.90;;;;;;1899108;75;21114;-87
2023/05/05 09:53:06;;;;;;;1.32;1.10;;;21.50;99.90;;;;;;1883873;76;21114;-87
2023/05/05 09:55:59;;;;;;;4.72;1.17;;;21.50;99.90;;;;;;1910862;73;21119;-87
2023/05/05 09:58:51;;;;;;;3.10;1.17;;;21.50;99.90;;;;;;1905932;75;21154;-87
2023/05/05 10:01:43;;;;;;;3.05;1.20;;;21.40;99.90;;;;;;1884361;75;21154;-88
2023/05/05 10:04:34;;;;;;;1.55;1.00;;;21.40;99.90;;;;;;1883892;76;21620;-87
2023/05/05 10:07:26;;;;;;;2.62;1.10;;;21.50;99.90;;;;;;1913851;75;21093;-87
2023/05/05 10:10:18;;;;;;;2.02;1.10;;;21.70;99.90;;;;;;1914652;75;21078;-87
2023/05/05 10:13:11;;;;;;;2.40;1.00;;;21.80;99.90;;;;;;1903028;75;21059;-87
2023/05/05 10:16:06;;;;;;;4.45;1.32;;;22.00;99.90;;;;;;1898301;75;21518;-88
2023/05/05 10:19:02;;;;;;;2.00;1.10;;;22.10;99.90;;;;;;1884755;75;21110;-87
2023/05/05 10:21:59;;;;;;;5.53;1.30;;;22.20;99.90;;;;;;1905862;75;21106;-88
2023/05/05 10:24:55;;;;;;;3.22;1.27;;;22.10;99.90;;;;;;1906462;75;21084;-89
2023/05/05 10:27:49;;;;;;;4.35;1.12;;;22.00;99.90;;;;;;1945628;73;21556;-88
2023/05/05 10:30:46;;;;;;;5.62;1.45;;;22.10;99.90;;;;;;1898641;75;21125;-89
2023/05/05 10:33:43;;;;;;;1.70;1.12;;;22.00;99.90;;;;;;1917425;75;21600;-88
2023/05/05 10:36:35;;;;;;;3.52;1.30;;;22.10;99.90;;;;;;1912599;75;21036;-88
2023/05/05 10:39:28;;;;;;;3.10;0.90;;;22.00;99.90;;;;;;1915010;75;21110;-89
2023/05/05 10:42:22;;;;;;;2.92;1.12;;;22.10;99.90;;;;;;1903176;75;21180;-88
2023/05/05 10:45:14;;;;;;;1.55;1.12;;;22.00;99.90;;;;;;1917086;75;21133;-89
2023/05/05 10:48:10;;;;;;;1.62;0.90;;;22.20;99.90;;;;;;1903240;74;21122;-89
2023/05/05 10:51:27;;;;;;;5.37;2.62;;;22.20;99.90;;;;;;1898769;74;21207;-88
2023/05/05 10:54:20;;;;;;;;;;;22.20;99.90;;;;;;1925624;74;21097;-88
2023/05/05 10:57:15;;;;;;;3.25;1.50;;;22.30;99.90;;;;;;1908075;74;20214;-89
2023/05/05 11:00:11;;;;;;;0.90;0.78;;;22.50;99.90;;;;;;1906874;74;21168;-88
2023/05/05 11:03:23;;;;;;;5.95;4.08;;;22.60;99.90;;;;;;1906797;74;21866;-88
2023/05/05 11:06:14;;;;;;;7.70;3.72;;;22.70;99.90;;;;;;1892551;76;21054;-88
2023/05/05 11:09:30;;;;;;;7.10;1.80;;;22.80;99.90;;;;;;1915855;74;21687;-81
2023/05/05 11:12:21;;;;;;;0.95;0.60;;;23.00;99.90;;;;;;1903164;73;21105;-83
2023/05/05 11:15:36;;;;;;;1.30;0.80;;;23.00;99.90;;;;;;1901736;74;21522;-83
2023/05/05 11:18:39;;;;;;;4.72;1.20;;;23.10;99.90;;;;;;1914033;74;21074;-83
2023/05/05 11:21:30;;;;;;;2.72;0.90;;;23.10;99.90;;;;;;1915068;74;21163;-85
2023/05/05 11:27:10;;;;;;;1.12;0.62;;;23.00;99.90;;;;;;1945858;72;22151;-82
2023/05/05 11:30:10;;;;;;;1.92;0.68;;;23.20;99.90;;;;;;1935705;72;21087;-83
2023/05/05 11:36:14;;;;;;;2.65;0.55;;;23.10;99.90;;;;;;1947133;72;22114;-88
2023/05/05 11:42:19;;;;;;;0.85;0.60;;;23.30;99.90;;;;;;1948872;72;22154;-87
2023/05/05 11:45:22;;;;;;;1.15;0.60;;;23.30;99.90;;;;;;1900618;75;21059;-88
2023/05/05 11:48:27;;;;;;;2.15;0.42;;;23.30;99.90;;;;;;1899056;75;21103;-88
2023/05/05 11:51:18;;;;;;;2.77;0.95;;;23.40;99.90;;;;;;1898536;75;21172;-86
2023/05/05 11:54:10;;;;;;;1.80;0.60;;;23.40;99.90;;;;;;1910095;75;21055;-87
2023/05/05 11:57:04;;;;;;;0.57;0.47;;;23.50;99.90;;;;;;1887689;73;21189;-87
2023/05/05 12:05:21;;;;;;;3.58;1.02;;;23.80;99.90;;;;;;1948883;72;22190;-87
2023/05/05 12:08:13;;;;;;;1.95;0.80;;;23.80;99.90;;;;;;1900957;75;21162;-87
2023/05/05 12:11:06;;;;;;;1.92;0.60;;;23.90;99.90;;;;;;1893474;73;21125;-86
2023/05/05 12:14:11;;;;;;;1.85;0.78;;;24.00;99.90;;;;;;1904794;74;21541;-87
2023/05/05 12:17:06;;;;;;;2.47;0.82;;;24.00;99.90;;;;;;1912956;74;21102;-87
2023/05/05 12:19:58;;;;;;;3.05;0.78;;;24.20;99.90;;;;;;1895486;75;21193;-86
2023/05/05 12:22:49;;;;;;;3.02;0.50;;;24.30;99.90;;;;;;1902181;75;21082;-87
2023/05/05 12:25:41;;;;;;;2.30;0.70;;;24.20;99.90;;;;;;1891980;75;21122;-87
2023/05/05 12:28:45;;;;;;;1.30;0.60;;;24.20;99.90;;;;;;1896527;75;21086;-87
2023/05/05 12:31:38;;;;;;;1.42;0.60;;;24.30;99.90;;;;;;1892138;75;21168;-87
2023/05/05 12:34:29;;;;;;;1.92;0.70;;;24.20;99.50;;;;;;1886564;75;21154;-87
2023/05/05 12:40:04;;;;;;;2.17;0.82;;;24.30;99.80;;;;;;1925803;72;22248;-87
2023/05/05 12:45:38;;;;;;;2.92;0.60;;;24.50;98.90;;;;;;1944573;72;22220;-87
2023/05/05 12:48:30;;;;;;;1.95;0.98;;;24.60;98.50;;;;;;1905595;74;21064;-86
2023/05/05 12:51:22;;;;;;;4.78;1.00;;;24.70;98.10;;;;;;1904551;75;22251;-87
2023/05/05 12:54:16;;;;;;;1.45;0.88;;;24.90;98.00;;;;;;1908055;74;21530;-87
2023/05/05 12:57:13;;;;;;;1.65;0.70;;;25.10;97.80;;;;;;1904296;75;21329;-89
2023/05/05 13:00:16;;;;;;;4.78;0.80;;;25.00;97.10;;;;;;1906058;75;21125;-87
2023/05/05 13:05:50;;;;;;;0.95;0.50;;;25.10;97.00;;;;;;1933297;72;22697;-87
2023/05/05 13:11:25;;;;;;;1.47;0.70;;;25.00;95.40;;;;;;1940191;72;22133;-86
2023/05/05 13:14:16;;;;;;;1.72;0.70;;;25.00;95.90;;;;;;1873194;75;21187;-87
2023/05/05 13:17:08;;;;;;;1.12;0.60;;;25.10;95.40;;;;;;1879878;75;21573;-87
2023/05/05 13:19:59;;;;;;;1.00;0.70;;;25.20;94.80;;;;;;1884181;75;21098;-87
2023/05/05 13:22:50;;;;;;;1.82;0.88;;;25.20;94.30;;;;;;1877854;75;21098;-87
2023/05/05 13:25:42;;;;;;;1.15;0.62;;;25.30;94.00;;;;;;1875800;75;21111;-87
2023/05/05 13:28:33;;;;;;;1.52;0.60;;;25.30;93.60;;;;;;1883732;75;21193;-87
2023/05/05 13:34:05;;;;;;;1.35;0.60;;;25.30;93.00;;;;;;1943463;72;22168;-88
2023/05/05 13:36:57;;;;;;;1.42;0.80;;;25.40;93.40;;;;;;1905068;74;21110;-88
2023/05/05 13:39:48;;;;;;;4.40;0.80;;;25.40;93.10;;;;;;1906563;74;21161;-87
2023/05/05 13:45:18;;;;;;;1.50;0.68;;;25.70;92.40;;;;;;1940150;72;22220;-87
2023/05/05 13:48:10;;;;;;;1.62;0.98;;;25.60;92.40;;;;;;1893466;74;21133;-88
2023/05/05 13:51:02;;;;;;;2.25;0.70;;;25.70;92.00;;;;;;1903119;75;21180;-89
2023/05/05 13:53:54;;;;;;;2.25;0.60;;;25.80;91.40;;;;;;1898529;75;21093;-88
2023/05/05 13:56:45;;;;;;;1.72;0.70;;;26.20;90.90;;;;;;1895351;75;21101;-86
2023/05/05 14:02:18;;;;;;;1.77;0.80;;;26.60;90.10;;;;;;1937468;72;22206;-88
2023/05/05 14:07:53;;;;;;;1.40;0.65;;;27.10;87.90;;;;;;1945288;72;22286;-87
2023/05/05 14:10:44;;;;;;;1.60;0.80;;;27.20;88.10;;;;;;1907994;75;21101;-87
2023/05/05 14:16:18;;;;;;;2.12;0.90;;;27.40;86.80;;;;;;1961575;72;22130;-86
2023/05/05 14:19:09;;;;;;;1.32;0.80;;;27.60;85.70;;;;;;1918865;74;21176;-88
2023/05/05 14:22:00;;;;;;;2.58;0.70;;;27.80;85.80;;;;;;1904269;75;21540;-87
2023/05/05 14:24:52;;;;;;;1.00;0.60;;;27.40;84.80;;;;;;1911171;74;21094;-86
2023/05/05 14:30:22;;;;;;;1.22;0.53;;;28.00;85.30;;;;;;1932256;72;22245;-87
2023/05/05 14:33:13;;;;;;;2.47;0.75;;;27.90;83.10;;;;;;1911985;75;21161;-87
2023/05/05 14:36:06;;;;;;;1.20;0.53;;;27.80;83.40;;;;;;1905331;75;21105;-88
2023/05/05 14:41:42;;;;;;;3.20;0.70;;;28.00;81.60;;;;;;1933118;72;22198;-86
2023/05/05 14:44:34;;;;;;;2.50;0.82;;;28.10;81.80;;;;;;1893610;75;21149;-87
2023/05/05 14:47:25;;;;;;;2.22;0.70;;;27.80;81.60;;;;;;1893244;75;21071;-86
2023/05/05 14:50:14;;;;;;;1.25;0.60;;;27.90;81.10;;;;;;1898644;75;21113;-86
2023/05/05 14:53:06;;;;;;;4.15;1.07;;;28.10;80.80;;;;;;1884722;75;21160;-88
2023/05/05 14:55:58;;;;;;;1.50;0.80;;;28.00;80.10;;;;;;1905432;75;21168;-88
2023/05/05 14:58:49;;;;;;;3.15;0.62;;;28.10;79.80;;;;;;1902790;75;21164;-86
2023/05/05 15:01:42;;;;;;;2.12;0.80;;;27.90;79.70;;;;;;1883596;75;21105;-86
2023/05/05 15:07:14;;;;;;;1.00;0.70;;;28.00;79.60;;;;;;1934260;72;22275;-86
2023/05/05 15:10:08;;;;;;;1.35;0.70;;;28.30;79.30;;;;;;1893362;75;21122;-87
2023/05/05 15:15:44;;;;;;;2.30;0.70;;;27.90;79.20;;;;;;1913712;72;28192;-86
2023/05/05 15:21:26;;;;;;;1.55;0.72;;;27.60;79.10;;;;;;1897263;75;21105;-87
2023/05/05 15:24:18;;;;;;;1.50;0.70;;;27.20;78.90;;;;;;1909400;75;21177;-87
2023/05/05 15:27:09;;;;;;;3.27;0.80;;;27.00;79.50;;;;;;1898838;75;21090;-87
2023/05/05 15:30:01;;;;;;;3.92;0.80;;;26.70;79.90;;;;;;1897639;75;21563;-86
2023/05/05 15:32:52;;;;;;;2.45;0.80;;;27.10;79.10;;;;;;1895916;75;21090;-87
2023/05/05 15:35:44;;;;;;;2.33;0.68;;;27.10;78.00;;;;;;1886140;75;21197;-87
2023/05/05 15:41:15;;;;;;;2.52;0.68;;;27.00;78.10;;;;;;1943883;72;22178;-87
2023/05/05 15:44:07;;;;;;;1.95;0.60;;;27.10;78.40;;;;;;1879378;75;21666;-87
2023/05/05 15:46:59;;;;;;;2.02;0.60;;;26.70;78.60;;;;;;1891054;75;21531;-88
2023/05/05 15:49:50;;;;;;;1.15;0.60;;;26.90;78.30;;;;;;1884760;75;21125;-88
2023/05/05 15:52:42;;;;;;;1.40;0.65;;;27.10;77.90;;;;;;1884308;75;21101;-88
2023/05/05 15:58:14;;;;;;;1.35;0.45;;;27.30;77.30;;;;;;1943579;72;22676;-87
2023/05/05 16:01:05;;;;;;;2.92;0.70;;;27.20;76.90;;;;;;1893829;75;21205;-87
2023/05/05 16:03:58;;;;;;;2.25;0.68;;;27.60;76.40;;;;;;1909504;74;21435;-86
2023/05/05 16:06:50;;;;;;;1.60;0.68;;;27.50;76.30;;;;;;1886229;75;21125;-88
2023/05/05 16:09:41;;;;;;;2.05;0.70;;;26.80;77.60;;;;;;1916805;74;21125;-84
2023/05/05 16:15:16;;;;;;;0.95;0.60;;;26.30;78.80;;;;;;1941337;72;22183;-88
2023/05/05 16:18:07;;;;;;;3.30;0.70;;;27.00;77.90;;;;;;1910294;73;21741;-88
2023/05/05 16:20:59;;;;;;;1.87;0.70;;;28.20;75.50;;;;;;1908711;74;21166;-86
2023/05/05 16:23:51;;;;;;;1.92;0.60;;;28.40;73.90;;;;;;1906243;74;21343;-87
2023/05/05 16:26:45;;;;;;;1.57;0.62;;;28.60;74.00;;;;;;1909558;73;21494;-86
2023/05/05 16:29:37;;;;;;;2.70;0.70;;;28.80;72.80;;;;;;1924913;74;21518;-87
2023/05/05 16:32:28;;;;;;;1.70;0.80;;;29.00;72.50;;;;;;1907662;74;21665;-87
2023/05/05 16:35:19;;;;;;;0.85;0.57;;;28.50;73.20;;;;;;1904801;75;21502;-86
2023/05/05 16:40:52;;;;;;;3.02;0.68;;;28.30;72.90;;;;;;1938593;72;22193;-87
2023/05/05 16:43:43;;;;;;;3.22;0.62;;;28.00;73.80;;;;;;1893334;75;21087;-87
2023/05/05 16:46:36;;;;;;;2.33;0.70;;;27.50;74.30;;;;;;1889259;75;21102;-87
2023/05/05 16:49:27;;;;;;;1.02;0.60;;;26.50;76.00;;;;;;1900494;75;21129;-86
2023/05/05 16:52:19;;;;;;;2.90;0.70;;;25.80;77.80;;;;;;1880792;75;21102;-87
2023/05/05 16:55:11;;;;;;;1.05;0.60;;;25.70;78.70;;;;;;1878519;75;21508;-86
2023/05/05 17:00:41;;;;;;;1.30;0.60;;;25.50;79.50;;;;;;1941297;72;22286;-86
2023/05/05 17:06:11;;;;;;;1.85;0.82;;;25.20;79.70;;;;;;1960195;72;22292;-86
2023/05/05 17:09:05;;;;;;;0.93;0.53;;;25.40;80.20;;;;;;1929172;73;21091;-87
2023/05/05 17:11:56;;;;;;;1.92;0.70;;;25.80;79.80;;;;;;1918507;73;21155;-88
2023/05/05 17:30:36;;;;;;;2.58;0.80;;;25.00;81.40;;;;;;1941143;72;22204;-86
2023/05/05 17:33:28;;;;;;;2.05;0.90;;;24.90;81.60;;;;;;1910731;73;21700;-87
2023/05/05 17:36:19;;;;;;;3.08;0.80;;;24.80;81.80;;;;;;1907896;75;21544;-86
2023/05/05 17:41:54;;;;;;;1.02;0.70;;;24.50;83.70;;;;;;1940530;72;22185;-87
2023/05/05 17:50:11;;;;;;;3.05;0.95;;;24.50;83.40;;;;;;1939969;72;22164;-88
2023/05/05 17:55:46;;;;;;;1.30;0.68;;;24.30;84.80;;;;;;1942395;72;22212;-88
2023/05/05 18:01:23;;;;;;;3.55;0.68;;;24.10;85.90;;;;;;1943964;72;22162;-86
2023/05/05 18:04:15;;;;;;;1.32;0.72;;;24.10;84.90;;;;;;1891276;75;21233;-86
2023/05/05 18:07:07;;;;;;;1.05;0.70;;;24.10;85.80;;;;;;1884235;75;21063;-86
2023/05/05 18:09:59;;;;;;;1.17;0.80;;;24.10;85.30;;;;;;1890204;75;21133;-85
2023/05/05 18:15:33;;;;;;;1.37;0.85;;;24.00;85.50;;;;;;1925134;72;22167;-85
2023/05/05 18:18:25;;;;;;;2.62;0.90;;;24.00;85.30;;;;;;1894916;75;21098;-85
2023/05/05 18:21:16;;;;;;;2.52;0.80;;;24.00;85.80;;;;;;1901813;75;21055;-86
2023/05/05 18:24:09;;;;;;;1.20;0.80;;;24.00;85.90;;;;;;1878677;75;21099;-86
2023/05/05 18:27:01;;;;;;;2.55;0.60;;;24.00;86.50;;;;;;1891433;74;21510;-86
2023/05/05 18:29:52;;;;;;;2.15;0.90;;;24.00;86.50;;;;;;1898895;75;21119;-86
2023/05/05 18:32:44;;;;;;;2.10;1.00;;;23.90;86.60;;;;;;1871031;75;21083;-87
2023/05/05 18:38:26;;;;;;;1.20;0.80;;;23.90;87.00;;;;;;1961665;72;22213;-86
2023/05/05 18:41:17;;;;;;;0.90;0.70;;;23.90;86.70;;;;;;1935952;73;21102;-86
2023/05/05 18:44:08;;;;;;;3.52;1.00;;;23.90;86.70;;;;;;1915579;73;21103;-87
2023/05/05 18:46:59;;;;;;;2.22;0.95;;;23.90;85.70;;;;;;1917315;73;21103;-86
2023/05/05 18:49:54;;;;;;;2.50;1.00;;;23.80;86.70;;;;;;1935410;73;21651;-86
2023/05/05 18:52:46;;;;;;;2.12;0.88;;;23.70;85.70;;;;;;1932039;74;21166;-86
2023/05/05 18:55:39;;;;;;;1.82;0.98;;;23.80;85.80;;;;;;1919718;73;21082;-85
2023/05/05 19:01:12;;;;;;;2.35;0.72;;;23.70;85.70;;;;;;1961983;72;22219;-86
2023/05/05 19:04:03;;;;;;;1.20;0.80;;;23.70;85.60;;;;;;1924702;74;21110;-86
2023/05/05 19:06:56;;;;;;;1.10;0.72;;;23.60;86.40;;;;;;1914341;74;21128;-86
2023/05/05 19:12:27;;;;;;;1.50;0.65;;;23.60;86.50;;;;;;1950520;72;22320;-85
2023/05/05 19:15:19;;;;;;;4.58;1.12;;;23.50;86.60;;;;;;1933895;73;21114;-86
2023/05/05 19:18:10;;;;;;;3.47;0.90;;;23.40;86.60;;;;;;1916593;73;21156;-85
2023/05/05 19:21:02;;;;;;;2.02;0.80;;;23.30;87.30;;;;;;1918413;73;21240;-86
2023/05/05 19:26:31;;;;;;;2.25;1.00;;;23.40;88.40;;;;;;1941848;72;22221;-86
2023/05/05 19:29:23;;;;;;;1.32;0.85;;;23.30;89.30;;;;;;1887913;74;21687;-86
2023/05/05 19:32:15;;;;;;;2.25;0.95;;;23.10;90.20;;;;;;1872905;75;21095;-86
2023/05/05 19:35:09;;;;;;;3.15;1.12;;;23.10;90.50;;;;;;1882747;75;21184;-86